Wetterdaten: Donnerstag, 08.11.2012
Datum Zeit Temperatur Luftfeuchte Regen Wind Richtung Richtung Taupunkt Windchill Windben
08.11.2012 00:00 -1,8 C 92 % 0,0 l/m 0,0 km/h (0 Bft) O 90 -2,9 C -2,3 C 0,0 km/h (0 Bft)
08.11.2012 00:05 -1,9 C 92 % 0,0 l/m 0,0 km/h (0 Bft) S-SO 157 -3,0 C -2,4 C 0,0 km/h (0 Bft)
08.11.2012 00:10 -2,2 C 92 % 0,0 l/m 0,0 km/h (0 Bft) S 180 -3,3 C -2,6 C 0,0 km/h (0 Bft)
08.11.2012 00:15 -2,2 C 92 % 0,0 l/m 0,0 km/h (0 Bft) W-SW 247 -3,3 C -2,8 C 0,0 km/h (0 Bft)
08.11.2012 00:20 -2,2 C 92 % 0,0 l/m 0,0 km/h (0 Bft) N 360 -3,3 C -2,9 C 0,0 km/h (0 Bft)
08.11.2012 00:25 -1,8 C 92 % 0,0 l/m 0,0 km/h (0 Bft) W-NW 292 -2,9 C -2,7 C 0,0 km/h (0 Bft)
08.11.2012 00:30 -2,0 C 92 % 0,0 l/m 0,0 km/h (0 Bft) W-NW 292 -3,1 C -2,7 C 0,0 km/h (0 Bft)
08.11.2012 00:35 -1,9 C 92 % 0,0 l/m 0,0 km/h (0 Bft) W-NW 292 -3,0 C -2,8 C 0,0 km/h (0 Bft)
08.11.2012 00:40 -1,9 C 93 % 0,0 l/m 0,0 km/h (0 Bft) N-NW 337 -2,9 C -2,9 C 0,0 km/h (0 Bft)
08.11.2012 00:45 -2,1 C 93 % 0,0 l/m 0,0 km/h (0 Bft) W-SW 247 -3,1 C -2,8 C 0,0 km/h (0 Bft)
08.11.2012 00:50 -2,2 C 93 % 0,0 l/m 0,0 km/h (0 Bft) N-NO 22 -3,2 C -2,8 C 0,0 km/h (0 Bft)
08.11.2012 00:55 -1,5 C 93 % 0,0 l/m 0,0 km/h (0 Bft) N 360 -2,5 C -2,6 C 0,0 km/h (0 Bft)
08.11.2012 01:00 -1,7 C 93 % 0,0 l/m 0,0 km/h (0 Bft) W-NW 292 -2,7 C -2,3 C 0,0 km/h (0 Bft)
08.11.2012 01:05 -1,9 C 93 % 0,0 l/m 0,0 km/h (0 Bft) N 360 -2,9 C -2,4 C 0,0 km/h (0 Bft)
08.11.2012 01:10 -1,6 C 93 % 0,0 l/m 0,0 km/h (0 Bft) N-NW 337 -2,6 C -2,5 C 0,0 km/h (0 Bft)
08.11.2012 01:15 -2,0 C 93 % 0,0 l/m 0,0 km/h (0 Bft) N-NO 22 -3,0 C -2,6 C 0,0 km/h (0 Bft)
08.11.2012 01:20 -2,1 C 93 % 0,0 l/m 0,0 km/h (0 Bft) O-SO 112 -3,1 C -2,7 C 0,0 km/h (0 Bft)
08.11.2012 01:25 -2,2 C 93 % 0,0 l/m 0,0 km/h (0 Bft) N 360 -3,2 C -2,9 C 0,0 km/h (0 Bft)
08.11.2012 01:30 -2,4 C 93 % 0,0 l/m 0,0 km/h (0 Bft) N-NO 22 -3,4 C -3,0 C 0,0 km/h (0 Bft)
08.11.2012 01:35 -2,4 C 93 % 0,0 l/m 0,0 km/h (0 Bft) N-NW 337 -3,4 C -3,1 C 0,0 km/h (0 Bft)
08.11.2012 01:40 -2,1 C 93 % 0,0 l/m 0,0 km/h (0 Bft) N 360 -3,1 C -3,0 C 0,0 km/h (0 Bft)
08.11.2012 01:45 -2,3 C 93 % 0,0 l/m 0,0 km/h (0 Bft) W-NW 292 -3,3 C -2,9 C 0,0 km/h (0 Bft)
08.11.2012 01:50 -2,4 C 93 % 0,0 l/m 0,0 km/h (0 Bft) N-NW 337 -3,4 C -2,9 C 0,0 km/h (0 Bft)
08.11.2012 01:55 -2,5 C 93 % 0,0 l/m 0,0 km/h (0 Bft) N 360 -3,5 C -3,1 C 0,0 km/h (0 Bft)
08.11.2012 02:00 -2,3 C 93 % 0,0 l/m 0,0 km/h (0 Bft) N-NO 22 -3,3 C -3,2 C 0,0 km/h (0 Bft)
08.11.2012 02:05 -2,1 C 93 % 0,0 l/m 0,0 km/h (0 Bft) N-NO 22 -3,1 C -2,6 C 0,0 km/h (0 Bft)
08.11.2012 02:10 -2,4 C 93 % 0,0 l/m 0,0 km/h (0 Bft) N-NO 22 -3,4 C -2,2 C 0,0 km/h (0 Bft)
08.11.2012 02:15 -2,1 C 93 % 0,0 l/m 0,0 km/h (0 Bft) N-NO 22 -3,1 C -2,3 C 0,0 km/h (0 Bft)
08.11.2012 02:20 -2,0 C 93 % 0,0 l/m 0,0 km/h (0 Bft) N-NO 22 -3,0 C -2,4 C 0,0 km/h (0 Bft)
08.11.2012 02:25 -1,9 C 93 % 0,0 l/m 0,0 km/h (0 Bft) N-NO 22 -2,9 C -2,4 C 0,0 km/h (0 Bft)
08.11.2012 02:30 -2,0 C 93 % 0,0 l/m 0,2 km/h (0 Bft) N-NO 22 -3,0 C -2,4 C 2,1 km/h (1 Bft)
08.11.2012 02:35 -2,1 C 93 % 0,0 l/m 0,2 km/h (0 Bft) N-NO 22 -3,1 C -2,5 C 0,0 km/h (0 Bft)
08.11.2012 02:40 -2,4 C 93 % 0,0 l/m 0,0 km/h (0 Bft) N-NO 22 -3,4 C -2,7 C 0,0 km/h (0 Bft)
08.11.2012 02:45 -2,4 C 93 % 0,0 l/m 0,0 km/h (0 Bft) N-NO 22 -3,4 C -2,8 C 0,0 km/h (0 Bft)
08.11.2012 02:50 -2,6 C 93 % 0,0 l/m 0,0 km/h (0 Bft) N-NO 22 -3,6 C -2,8 C 0,0 km/h (0 Bft)
08.11.2012 02:55 -2,5 C 93 % 0,0 l/m 0,0 km/h (0 Bft) N-NO 22 -3,5 C -3,0 C 0,0 km/h (0 Bft)
08.11.2012 03:00 -2,6 C 93 % 0,0 l/m 0,0 km/h (0 Bft) N-NO 22 -3,6 C -3,0 C 0,0 km/h (0 Bft)
08.11.2012 03:05 -2,5 C 93 % 0,0 l/m 0,0 km/h (0 Bft) N-NO 22 -3,5 C -2,9 C 0,0 km/h (0 Bft)
08.11.2012 03:10 -2,3 C 93 % 0,0 l/m 0,0 km/h (0 Bft) N-NO 22 -3,3 C -2,8 C 0,0 km/h (0 Bft)
08.11.2012 03:15 -2,4 C 93 % 0,0 l/m 0,0 km/h (0 Bft) N-NO 22 -3,4 C -2,8 C 0,0 km/h (0 Bft)
08.11.2012 03:20 -2,3 C 93 % 0,0 l/m 0,0 km/h (0 Bft) N-NO 22 -3,3 C -3,0 C 0,0 km/h (0 Bft)
08.11.2012 03:25 -2,5 C 93 % 0,0 l/m 0,0 km/h (0 Bft) N-NO 22 -3,5 C -3,1 C 0,0 km/h (0 Bft)
08.11.2012 03:30 -2,7 C 93 % 0,0 l/m 0,0 km/h (0 Bft) N-NO 22 -3,7 C -3,1 C 0,0 km/h (0 Bft)
08.11.2012 03:35 -2,8 C 93 % 0,0 l/m 0,0 km/h (0 Bft) N-NO 22 -3,8 C -3,1 C 0,0 km/h (0 Bft)
08.11.2012 03:40 -2,8 C 93 % 0,0 l/m 0,0 km/h (0 Bft) N-NO 22 -3,8 C -3,2 C 0,0 km/h (0 Bft)
08.11.2012 03:45 -2,9 C 93 % 0,0 l/m 0,0 km/h (0 Bft) N-NO 22 -3,9 C -3,2 C 0,0 km/h (0 Bft)
08.11.2012 03:50 -2,9 C 93 % 0,0 l/m 0,0 km/h (0 Bft) N-NO 22 -3,9 C -3,4 C 0,0 km/h (0 Bft)
08.11.2012 03:55 -2,2 C 93 % 0,0 l/m 0,0 km/h (0 Bft) N-NO 22 -3,2 C -3,4 C 0,0 km/h (0 Bft)
08.11.2012 04:00 -2,1 C 94 % 0,0 l/m 0,0 km/h (0 Bft) N-NO 22 -2,9 C -3,3 C 0,0 km/h (0 Bft)
08.11.2012 04:05 -1,8 C 94 % 0,0 l/m 0,0 km/h (0 Bft) N-NO 22 -2,6 C -3,2 C 0,0 km/h (0 Bft)
08.11.2012 04:10 -2,5 C 93 % 0,0 l/m 0,0 km/h (0 Bft) N-NO 22 -3,5 C -3,2 C 0,0 km/h (0 Bft)
08.11.2012 04:15 -2,6 C 93 % 0,0 l/m 0,0 km/h (0 Bft) N-NO 22 -3,6 C -3,2 C 0,0 km/h (0 Bft)
08.11.2012 04:20 -2,7 C 93 % 0,0 l/m 0,0 km/h (0 Bft) N-NO 22 -3,7 C -3,2 C 0,0 km/h (0 Bft)
08.11.2012 04:25 -2,6 C 93 % 0,0 l/m 0,0 km/h (0 Bft) N-NO 22 -3,6 C -3,2 C 0,0 km/h (0 Bft)
08.11.2012 04:30 -2,3 C 93 % 0,0 l/m 0,0 km/h (0 Bft) N-NO 22 -3,3 C -3,0 C 0,0 km/h (0 Bft)
08.11.2012 04:35 -2,4 C 93 % 0,0 l/m 0,0 km/h (0 Bft) N-NO 22 -3,4 C -3,0 C 0,0 km/h (0 Bft)
08.11.2012 04:40 -2,0 C 94 % 0,0 l/m 0,0 km/h (0 Bft) N-NO 22 -2,8 C -2,9 C 0,0 km/h (0 Bft)
08.11.2012 04:45 -2,2 C 93 % 0,0 l/m 0,0 km/h (0 Bft) N-NO 22 -3,2 C -2,9 C 0,0 km/h (0 Bft)
08.11.2012 04:50 -2,4 C 93 % 0,0 l/m 0,0 km/h (0 Bft) N-NO 22 -3,4 C -3,0 C 0,0 km/h (0 Bft)
08.11.2012 04:55 -2,5 C 93 % 0,0 l/m 0,0 km/h (0 Bft) N-NO 22 -3,5 C -3,0 C 0,0 km/h (0 Bft)
08.11.2012 05:00 -2,5 C 93 % 0,0 l/m 0,0 km/h (0 Bft) N-NO 22 -3,5 C -3,0 C 0,0 km/h (0 Bft)
08.11.2012 05:05 -2,3 C 93 % 0,0 l/m 0,0 km/h (0 Bft) N-NO 22 -3,3 C -3,2 C 0,0 km/h (0 Bft)
08.11.2012 05:10 -2,5 C 93 % 0,0 l/m 0,0 km/h (0 Bft) N-NO 22 -3,5 C -3,2 C 0,0 km/h (0 Bft)
08.11.2012 05:15 -2,2 C 93 % 0,0 l/m 0,0 km/h (0 Bft) N-NO 22 -3,2 C -3,2 C 0,0 km/h (0 Bft)
08.11.2012 05:20 -2,2 C 93 % 0,0 l/m 0,0 km/h (0 Bft) N-NO 22 -3,2 C -3,2 C 0,0 km/h (0 Bft)
08.11.2012 05:25 -2,4 C 93 % 0,0 l/m 0,0 km/h (0 Bft) N-NO 22 -3,4 C -3,2 C 0,0 km/h (0 Bft)
08.11.2012 05:30 -2,6 C 93 % 0,0 l/m 0,0 km/h (0 Bft) N-NO 22 -3,6 C -3,2 C 0,0 km/h (0 Bft)
08.11.2012 05:35 -2,7 C 93 % 0,0 l/m 0,0 km/h (0 Bft) N-NO 22 -3,7 C -3,3 C 0,0 km/h (0 Bft)
08.11.2012 05:40 -2,3 C 93 % 0,0 l/m 0,0 km/h (0 Bft) N-NO 22 -3,3 C -3,3 C 0,0 km/h (0 Bft)
08.11.2012 05:45 -2,1 C 93 % 0,0 l/m 0,0 km/h (0 Bft) N-NO 22 -3,1 C -3,2 C 0,0 km/h (0 Bft)
08.11.2012 05:50 -2,7 C 93 % 0,0 l/m 0,0 km/h (0 Bft) N-NO 22 -3,7 C -3,2 C 0,0 km/h (0 Bft)
08.11.2012 05:55 -2,8 C 93 % 0,0 l/m 0,0 km/h (0 Bft) N-NO 22 -3,8 C -3,4 C 0,0 km/h (0 Bft)
08.11.2012 06:00 -2,9 C 93 % 0,0 l/m 0,0 km/h (0 Bft) N-NO 22 -3,9 C -3,4 C 0,0 km/h (0 Bft)
08.11.2012 06:05 -3,0 C 93 % 0,0 l/m 0,0 km/h (0 Bft) N-NO 22 -4,0 C -3,4 C 0,0 km/h (0 Bft)
08.11.2012 06:10 -2,6 C 93 % 0,0 l/m 0,0 km/h (0 Bft) N-NO 22 -3,6 C -3,4 C 0,0 km/h (0 Bft)
08.11.2012 06:15 -2,5 C 93 % 0,0 l/m 0,0 km/h (0 Bft) N-NO 22 -3,5 C -3,2 C 0,0 km/h (0 Bft)
08.11.2012 06:20 -2,6 C 93 % 0,0 l/m 0,0 km/h (0 Bft) N-NO 22 -3,6 C -3,2 C 0,0 km/h (0 Bft)
08.11.2012 06:25 -2,6 C 93 % 0,0 l/m 0,0 km/h (0 Bft) N-NO 22 -3,6 C -3,2 C 0,0 km/h (0 Bft)
08.11.2012 06:30 -2,7 C 93 % 0,0 l/m 0,0 km/h (0 Bft) N-NO 22 -3,7 C -3,2 C 0,0 km/h (0 Bft)
08.11.2012 06:35 -2,9 C 93 % 0,0 l/m 0,0 km/h (0 Bft) N-NO 22 -3,9 C -3,4 C 0,0 km/h (0 Bft)
08.11.2012 06:40 -3,0 C 93 % 0,0 l/m 0,0 km/h (0 Bft) N-NO 22 -4,0 C -3,5 C 0,0 km/h (0 Bft)
08.11.2012 06:45 -3,0 C 93 % 0,0 l/m 0,0 km/h (0 Bft) N-NO 22 -4,0 C -3,5 C 0,0 km/h (0 Bft)
08.11.2012 06:50 -2,8 C 93 % 0,0 l/m 0,0 km/h (0 Bft) N-NO 22 -3,8 C -3,6 C 0,0 km/h (0 Bft)
08.11.2012 06:55 -2,7 C 93 % 0,0 l/m 0,0 km/h (0 Bft) N-NO 22 -3,7 C -3,5 C 0,0 km/h (0 Bft)
08.11.2012 07:00 -2,2 C 93 % 0,0 l/m 0,0 km/h (0 Bft) N-NO 22 -3,2 C -3,2 C 0,0 km/h (0 Bft)
08.11.2012 07:05 -2,0 C 93 % 0,0 l/m 0,0 km/h (0 Bft) N-NO 22 -3,0 C -3,1 C 0,0 km/h (0 Bft)
08.11.2012 07:10 -2,0 C 93 % 0,0 l/m 0,2 km/h (0 Bft) N-NO 22 -3,0 C -2,6 C 0,0 km/h (0 Bft)
08.11.2012 07:15 -2,5 C 93 % 0,0 l/m 0,2 km/h (0 Bft) N-NO 22 -3,5 C -2,7 C 0,0 km/h (0 Bft)
08.11.2012 07:20 -2,5 C 93 % 0,0 l/m 0,0 km/h (0 Bft) N-NO 22 -3,5 C -2,8 C 0,0 km/h (0 Bft)
08.11.2012 07:25 -2,7 C 93 % 0,0 l/m 0,0 km/h (0 Bft) N-NO 22 -3,7 C -2,8 C 0,0 km/h (0 Bft)
08.11.2012 07:30 -2,0 C 93 % 0,0 l/m 0,0 km/h (0 Bft) N-NO 22 -3,0 C -2,8 C 0,0 km/h (0 Bft)
08.11.2012 07:35 -2,0 C 93 % 0,0 l/m 0,0 km/h (0 Bft) N-NO 22 -3,0 C -2,6 C 0,0 km/h (0 Bft)
08.11.2012 07:40 -1,8 C 93 % 0,0 l/m 0,0 km/h (0 Bft) N-NO 22 -2,8 C -2,7 C 0,0 km/h (0 Bft)
08.11.2012 07:45 -1,9 C 93 % 0,0 l/m 0,0 km/h (0 Bft) N-NO 22 -2,9 C -2,6 C 0,0 km/h (0 Bft)
08.11.2012 07:50 -1,3 C 94 % 0,0 l/m 0,2 km/h (0 Bft) N-NO 22 -2,1 C -2,3 C 0,0 km/h (0 Bft)
08.11.2012 07:55 -1,4 C 94 % 0,0 l/m 0,2 km/h (0 Bft) N-NO 22 -2,2 C -2,2 C 0,0 km/h (0 Bft)
08.11.2012 08:00 -0,5 C 94 % 0,0 l/m 0,2 km/h (0 Bft) N-NO 22 -1,3 C -1,8 C 2,3 km/h (1 Bft)
08.11.2012 08:05 -0,3 C 94 % 0,0 l/m 0,2 km/h (0 Bft) N-NO 22 -1,1 C -1,4 C 0,0 km/h (0 Bft)
08.11.2012 08:10 -0,1 C 94 % 0,0 l/m 0,0 km/h (0 Bft) N-NO 22 -0,9 C -0,9 C 0,0 km/h (0 Bft)
08.11.2012 08:15 -0,1 C 95 % 0,0 l/m 0,2 km/h (0 Bft) N-NO 22 -0,8 C -0,7 C 0,0 km/h (0 Bft)
08.11.2012 08:20 0,1 C 95 % 0,0 l/m 0,3 km/h (0 Bft) N-NO 22 -0,6 C -0,4 C 4,0 km/h (1 Bft)
08.11.2012 08:25 0,1 C 95 % 0,0 l/m 0,2 km/h (0 Bft) N-NO 22 -0,6 C -0,2 C 0,0 km/h (0 Bft)
08.11.2012 08:30 0,3 C 95 % 0,0 l/m 0,0 km/h (0 Bft) N-NO 22 -0,4 C -0,1 C 2,6 km/h (1 Bft)
08.11.2012 08:35 0,5 C 95 % 0,0 l/m 0,2 km/h (0 Bft) N-NO 22 -0,2 C -0,1 C 1,8 km/h (1 Bft)
08.11.2012 08:40 0,9 C 95 % 0,0 l/m 0,2 km/h (0 Bft) N-NO 22 0,2 C 0,1 C 0,0 km/h (0 Bft)
08.11.2012 08:45 0,8 C 95 % 0,0 l/m 0,2 km/h (0 Bft) N-NO 22 0,1 C 0,3 C 0,0 km/h (0 Bft)
08.11.2012 08:50 0,7 C 95 % 0,0 l/m 0,0 km/h (0 Bft) N-NO 22 -0,0 C 0,4 C 0,0 km/h (0 Bft)
08.11.2012 08:55 0,8 C 95 % 0,0 l/m 0,0 km/h (0 Bft) N-NO 22 0,1 C 0,5 C 0,0 km/h (0 Bft)
08.11.2012 09:00 1,2 C 95 % 0,0 l/m 0,0 km/h (0 Bft) N-NO 22 0,5 C 0,8 C 0,0 km/h (0 Bft)
08.11.2012 09:05 1,3 C 95 % 0,0 l/m 0,0 km/h (0 Bft) N-NO 22 0,6 C 1,0 C 0,0 km/h (0 Bft)
08.11.2012 09:10 1,5 C 95 % 0,0 l/m 0,0 km/h (0 Bft) N-NO 22 0,8 C 1,4 C 0,0 km/h (0 Bft)
08.11.2012 09:15 1,7 C 95 % 0,0 l/m 0,0 km/h (0 Bft) N-NO 22 1,0 C 1,7 C 0,0 km/h (0 Bft)
08.11.2012 09:20 1,9 C 95 % 0,0 l/m 0,0 km/h (0 Bft) N 360 1,2 C 2,1 C 0,0 km/h (0 Bft)
08.11.2012 09:25 2,0 C 95 % 0,0 l/m 0,0 km/h (0 Bft) N 360 1,3 C 2,4 C 0,0 km/h (0 Bft)
08.11.2012 09:30 2,1 C 95 % 0,0 l/m 0,0 km/h (0 Bft) SO 135 1,4 C 2,8 C 0,0 km/h (0 Bft)
08.11.2012 09:35 2,3 C 95 % 0,0 l/m 0,0 km/h (0 Bft) SO 135 1,6 C 3,0 C 0,0 km/h (0 Bft)
08.11.2012 09:40 2,2 C 95 % 0,0 l/m 0,0 km/h (0 Bft) S 180 1,5 C 3,5 C 0,0 km/h (0 Bft)
08.11.2012 09:45 2,2 C 95 % 0,0 l/m 0,0 km/h (0 Bft) N 360 1,5 C 3,9 C 0,0 km/h (0 Bft)
08.11.2012 09:50 2,6 C 95 % 0,0 l/m 0,0 km/h (0 Bft) N 360 1,9 C 4,5 C 0,0 km/h (0 Bft)
08.11.2012 09:55 2,8 C 95 % 0,0 l/m 0,0 km/h (0 Bft) N 360 2,1 C 5,2 C 0,0 km/h (0 Bft)
08.11.2012 10:00 3,2 C 94 % 0,0 l/m 0,0 km/h (0 Bft) NO 45 2,3 C 6,1 C 0,0 km/h (0 Bft)
08.11.2012 10:05 3,3 C 94 % 0,0 l/m 0,0 km/h (0 Bft) NO 45 2,4 C 7,4 C 0,0 km/h (0 Bft)
08.11.2012 10:10 3,4 C 94 % 0,0 l/m 0,0 km/h (0 Bft) N-NW 337 2,5 C 9,7 C 0,0 km/h (0 Bft)
08.11.2012 10:15 3,4 C 94 % 0,0 l/m 0,0 km/h (0 Bft) N 360 2,5 C 10,5 C 0,0 km/h (0 Bft)
08.11.2012 10:20 3,4 C 94 % 0,0 l/m 0,0 km/h (0 Bft) N-NO 22 2,5 C 11,1 C 0,0 km/h (0 Bft)
08.11.2012 10:25 3,5 C 94 % 0,0 l/m 0,0 km/h (0 Bft) N-NO 22 2,6 C 11,5 C 0,0 km/h (0 Bft)
08.11.2012 10:30 3,7 C 94 % 0,0 l/m 0,2 km/h (0 Bft) SO 135 2,8 C 12,1 C 2,4 km/h (1 Bft)
08.11.2012 10:35 4,0 C 93 % 0,0 l/m 0,2 km/h (0 Bft) N-NO 22 3,0 C 12,7 C 0,0 km/h (0 Bft)
08.11.2012 10:40 4,3 C 93 % 0,0 l/m 0,2 km/h (0 Bft) N 360 3,3 C 13,5 C 0,0 km/h (0 Bft)
08.11.2012 10:45 4,6 C 93 % 0,0 l/m 0,0 km/h (0 Bft) O-SO 112 3,6 C 13,8 C 0,0 km/h (0 Bft)
08.11.2012 10:50 5,1 C 93 % 0,0 l/m 0,0 km/h (0 Bft) N 360 4,1 C 13,7 C 0,0 km/h (0 Bft)
08.11.2012 10:55 5,3 C 92 % 0,0 l/m 0,3 km/h (0 Bft) O-SO 112 4,1 C 13,5 C 0,0 km/h (0 Bft)
08.11.2012 11:00 5,5 C 92 % 0,0 l/m 0,3 km/h (0 Bft) S 180 4,3 C 12,7 C 0,0 km/h (0 Bft)
08.11.2012 11:05 5,8 C 91 % 0,0 l/m 0,0 km/h (0 Bft) N-NW 337 4,4 C 12,8 C 1,8 km/h (1 Bft)
08.11.2012 11:10 6,3 C 89 % 0,0 l/m 0,0 km/h (0 Bft) O 90 4,6 C 12,8 C 0,0 km/h (0 Bft)
08.11.2012 11:15 6,6 C 89 % 0,0 l/m 0,2 km/h (0 Bft) N-NO 22 4,9 C 13,3 C 0,0 km/h (0 Bft)
08.11.2012 11:20 7,0 C 88 % 0,0 l/m 0,2 km/h (0 Bft) W-SW 247 5,2 C 13,7 C 1,8 km/h (1 Bft)
08.11.2012 11:25 7,3 C 87 % 0,0 l/m 0,8 km/h (0 Bft) W-NW 292 5,3 C 13,3 C 1,9 km/h (1 Bft)
08.11.2012 11:30 7,4 C 86 % 0,0 l/m 1,3 km/h (1 Bft) W-SW 247 5,2 C 13,0 C 4,3 km/h (1 Bft)
08.11.2012 11:35 7,5 C 86 % 0,0 l/m 1,3 km/h (1 Bft) W-SW 247 5,3 C 12,8 C 2,4 km/h (1 Bft)
08.11.2012 11:40 7,7 C 82 % 0,0 l/m 1,6 km/h (1 Bft) W-NW 292 4,8 C 12,1 C 0,0 km/h (0 Bft)
08.11.2012 11:45 7,9 C 82 % 0,0 l/m 0,8 km/h (0 Bft) S-SO 157 5,0 C 12,2 C 0,0 km/h (0 Bft)
08.11.2012 11:50 8,1 C 83 % 0,0 l/m 0,0 km/h (0 Bft) S 180 5,4 C 12,6 C 0,0 km/h (0 Bft)
08.11.2012 11:55 8,3 C 84 % 0,0 l/m 0,0 km/h (0 Bft) SO 135 5,8 C 12,7 C 0,0 km/h (0 Bft)
08.11.2012 12:00 8,6 C 84 % 0,0 l/m 0,0 km/h (0 Bft) N 360 6,1 C 12,8 C 0,0 km/h (0 Bft)
08.11.2012 12:05 8,7 C 84 % 0,0 l/m 0,0 km/h (0 Bft) O 90 6,2 C 13,1 C 0,0 km/h (0 Bft)
08.11.2012 12:10 9,0 C 84 % 0,0 l/m 0,0 km/h (0 Bft) W-SW 247 6,4 C 14,2 C 0,0 km/h (0 Bft)
08.11.2012 12:15 9,3 C 84 % 0,0 l/m 0,0 km/h (0 Bft) NO 45 6,7 C 14,4 C 0,0 km/h (0 Bft)
08.11.2012 12:20 9,3 C 84 % 0,0 l/m 0,2 km/h (0 Bft) W-SW 247 6,7 C 14,8 C 2,3 km/h (1 Bft)
08.11.2012 12:25 9,3 C 79 % 0,0 l/m 0,8 km/h (0 Bft) W-SW 247 5,8 C 14,1 C 2,9 km/h (1 Bft)
08.11.2012 12:30 9,2 C 80 % 0,0 l/m 1,6 km/h (1 Bft) SW 225 5,9 C 13,0 C 2,1 km/h (1 Bft)
08.11.2012 12:35 9,2 C 79 % 0,0 l/m 1,0 km/h (0 Bft) S 180 5,8 C 12,3 C 2,3 km/h (1 Bft)
08.11.2012 12:40 9,4 C 78 % 0,0 l/m 1,6 km/h (1 Bft) W-SW 247 5,8 C 11,9 C 5,5 km/h (1 Bft)
08.11.2012 12:45 9,5 C 79 % 0,0 l/m 2,1 km/h (1 Bft) S 180 6,0 C 11,6 C 3,2 km/h (1 Bft)
08.11.2012 12:50 9,5 C 77 % 0,0 l/m 2,7 km/h (1 Bft) S 180 5,7 C 11,4 C 7,6 km/h (2 Bft)
08.11.2012 12:55 9,6 C 78 % 0,0 l/m 3,2 km/h (1 Bft) S 180 6,0 C 11,3 C 5,5 km/h (1 Bft)
08.11.2012 13:00 9,5 C 78 % 0,0 l/m 4,5 km/h (1 Bft) S 180 5,9 C 11,1 C 8,5 km/h (2 Bft)
08.11.2012 13:05 9,5 C 78 % 0,0 l/m 4,0 km/h (1 Bft) W 270 5,9 C 11,0 C 3,1 km/h (1 Bft)
08.11.2012 13:10 9,5 C 78 % 0,0 l/m 2,1 km/h (1 Bft) S-SO 157 5,9 C 11,0 C 0,0 km/h (0 Bft)
08.11.2012 13:15 9,6 C 80 % 0,0 l/m 1,6 km/h (1 Bft) SO 135 6,3 C 11,0 C 2,7 km/h (1 Bft)
08.11.2012 13:20 9,6 C 81 % 0,0 l/m 1,1 km/h (1 Bft) SO 135 6,5 C 11,1 C 0,0 km/h (0 Bft)
08.11.2012 13:25 9,8 C 81 % 0,0 l/m 0,8 km/h (0 Bft) NO 45 6,7 C 11,2 C 0,0 km/h (0 Bft)
08.11.2012 13:30 9,7 C 81 % 0,0 l/m 0,3 km/h (0 Bft) S-SO 157 6,6 C 11,5 C 2,4 km/h (1 Bft)
08.11.2012 13:35 9,8 C 81 % 0,0 l/m 0,6 km/h (0 Bft) SO 135 6,7 C 11,5 C 1,8 km/h (1 Bft)
08.11.2012 13:40 9,9 C 77 % 0,0 l/m 1,8 km/h (1 Bft) S 180 6,1 C 11,5 C 3,5 km/h (1 Bft)
08.11.2012 13:45 9,9 C 79 % 0,0 l/m 2,1 km/h (1 Bft) O-SO 112 6,4 C 11,4 C 3,4 km/h (1 Bft)
08.11.2012 13:50 9,9 C 75 % 0,0 l/m 2,6 km/h (1 Bft) SO 135 5,7 C 11,4 C 4,2 km/h (1 Bft)
08.11.2012 13:55 9,9 C 75 % 0,0 l/m 3,4 km/h (1 Bft) SO 135 5,7 C 11,4 C 4,3 km/h (1 Bft)
08.11.2012 14:00 9,9 C 73 % 0,0 l/m 4,2 km/h (1 Bft) SO 135 5,3 C 11,3 C 4,8 km/h (1 Bft)
08.11.2012 14:05 9,9 C 74 % 0,0 l/m 4,0 km/h (1 Bft) SO 135 5,5 C 11,3 C 1,6 km/h (1 Bft)
08.11.2012 14:10 9,9 C 75 % 0,0 l/m 3,4 km/h (1 Bft) SO 135 5,7 C 11,4 C 3,7 km/h (1 Bft)
08.11.2012 14:15 9,9 C 76 % 0,0 l/m 2,9 km/h (1 Bft) O-SO 112 5,9 C 11,4 C 3,5 km/h (1 Bft)
08.11.2012 14:20 9,9 C 76 % 0,0 l/m 3,5 km/h (1 Bft) O-SO 112 5,9 C 11,3 C 3,5 km/h (1 Bft)
08.11.2012 14:25 9,8 C 77 % 0,0 l/m 3,2 km/h (1 Bft) S 180 6,0 C 11,3 C 4,2 km/h (1 Bft)
08.11.2012 14:30 9,8 C 76 % 0,0 l/m 3,2 km/h (1 Bft) SO 135 5,8 C 11,3 C 6,3 km/h (2 Bft)
08.11.2012 14:35 9,7 C 78 % 0,0 l/m 3,4 km/h (1 Bft) SO 135 6,1 C 11,3 C 2,7 km/h (1 Bft)
08.11.2012 14:40 9,7 C 79 % 0,0 l/m 2,9 km/h (1 Bft) S-SO 157 6,2 C 11,6 C 6,1 km/h (2 Bft)
08.11.2012 14:45 9,6 C 77 % 0,0 l/m 3,1 km/h (1 Bft) S 180 5,8 C 11,5 C 5,0 km/h (1 Bft)
08.11.2012 14:50 9,5 C 79 % 0,0 l/m 3,7 km/h (1 Bft) S-SO 157 6,0 C 11,2 C 3,5 km/h (1 Bft)
08.11.2012 14:55 9,2 C 80 % 0,0 l/m 2,4 km/h (1 Bft) SO 135 5,9 C 11,0 C 0,0 km/h (0 Bft)
08.11.2012 15:00 9,0 C 81 % 0,0 l/m 0,5 km/h (0 Bft) SO 135 5,9 C 10,6 C 2,1 km/h (1 Bft)
08.11.2012 15:05 9,0 C 81 % 0,0 l/m 0,5 km/h (0 Bft) S-SO 157 5,9 C 10,4 C 2,1 km/h (1 Bft)
08.11.2012 15:10 8,9 C 82 % 0,0 l/m 0,6 km/h (0 Bft) O 90 6,0 C 10,1 C 0,0 km/h (0 Bft)
08.11.2012 15:15 8,7 C 81 % 0,0 l/m 1,8 km/h (1 Bft) SO 135 5,6 C 10,0 C 4,5 km/h (1 Bft)
08.11.2012 15:20 8,6 C 81 % 0,0 l/m 3,4 km/h (1 Bft) S 180 5,5 C 10,0 C 6,0 km/h (2 Bft)
08.11.2012 15:25 8,7 C 79 % 0,0 l/m 4,3 km/h (1 Bft) S-SO 157 5,3 C 10,1 C 5,0 km/h (1 Bft)
08.11.2012 15:30 9,0 C 74 % 0,0 l/m 5,3 km/h (1 Bft) O-SO 112 4,6 C 9,9 C 11,1 km/h (2 Bft)
08.11.2012 15:35 9,3 C 65 % 0,0 l/m 7,2 km/h (2 Bft) O-SO 112 3,1 C 8,8 C 13,7 km/h (3 Bft)
08.11.2012 15:40 9,0 C 72 % 0,0 l/m 7,7 km/h (2 Bft) O-NO 67 4,2 C 8,5 C 17,2 km/h (3 Bft)
08.11.2012 15:45 8,9 C 71 % 0,0 l/m 7,1 km/h (2 Bft) O 90 3,9 C 9,1 C 6,3 km/h (2 Bft)
08.11.2012 15:50 8,5 C 75 % 0,0 l/m 3,7 km/h (1 Bft) O-SO 112 4,3 C 10,3 C 0,0 km/h (0 Bft)
08.11.2012 15:55 8,5 C 74 % 0,0 l/m 1,4 km/h (1 Bft) NO 45 4,1 C 10,0 C 0,0 km/h (0 Bft)
08.11.2012 16:00 8,5 C 71 % 0,0 l/m 1,4 km/h (1 Bft) O-SO 112 3,5 C 9,7 C 2,1 km/h (1 Bft)
08.11.2012 16:05 8,3 C 70 % 0,0 l/m 2,1 km/h (1 Bft) N-NO 22 3,2 C 9,4 C 1,6 km/h (1 Bft)
08.11.2012 16:10 8,2 C 71 % 0,0 l/m 1,4 km/h (1 Bft) SO 135 3,3 C 9,1 C 2,4 km/h (1 Bft)
08.11.2012 16:15 8,1 C 70 % 0,0 l/m 1,6 km/h (1 Bft) NW 315 3,0 C 8,9 C 3,5 km/h (1 Bft)
08.11.2012 16:20 8,1 C 70 % 0,0 l/m 2,4 km/h (1 Bft) O-SO 112 3,0 C 8,9 C 1,9 km/h (1 Bft)
08.11.2012 16:25 8,1 C 68 % 0,0 l/m 2,4 km/h (1 Bft) O-SO 112 2,6 C 8,8 C 2,1 km/h (1 Bft)
08.11.2012 16:30 8,0 C 68 % 0,0 l/m 1,9 km/h (1 Bft) O-SO 112 2,5 C 8,6 C 2,1 km/h (1 Bft)
08.11.2012 16:35 8,0 C 63 % 0,0 l/m 2,4 km/h (1 Bft) O-SO 112 1,4 C 8,5 C 2,9 km/h (1 Bft)
08.11.2012 16:40 7,8 C 62 % 0,0 l/m 2,4 km/h (1 Bft) NO 45 1,0 C 8,5 C 3,9 km/h (1 Bft)
08.11.2012 16:45 7,8 C 60 % 0,0 l/m 2,1 km/h (1 Bft) O 90 0,5 C 8,3 C 2,1 km/h (1 Bft)
08.11.2012 16:50 7,4 C 59 % 0,0 l/m 2,1 km/h (1 Bft) N-NO 22 -0,1 C 8,1 C 4,8 km/h (1 Bft)
08.11.2012 16:55 7,2 C 59 % 0,0 l/m 2,3 km/h (1 Bft) O 90 -0,3 C 8,0 C 3,4 km/h (1 Bft)
08.11.2012 17:00 7,0 C 57 % 0,0 l/m 2,1 km/h (1 Bft) NO 45 -0,9 C 7,6 C 2,4 km/h (1 Bft)
08.11.2012 17:05 6,8 C 58 % 0,0 l/m 1,9 km/h (1 Bft) N-NO 22 -0,9 C 7,5 C 1,8 km/h (1 Bft)
08.11.2012 17:10 6,8 C 56 % 0,0 l/m 2,3 km/h (1 Bft) NO 45 -1,4 C 7,2 C 2,1 km/h (1 Bft)
08.11.2012 17:15 6,6 C 56 % 0,0 l/m 2,6 km/h (1 Bft) NO 45 -1,5 C 7,1 C 4,8 km/h (1 Bft)
08.11.2012 17:20 6,3 C 57 % 0,0 l/m 2,4 km/h (1 Bft) S 180 -1,6 C 6,9 C 2,9 km/h (1 Bft)
08.11.2012 17:25 6,2 C 56 % 0,0 l/m 2,3 km/h (1 Bft) NO 45 -1,9 C 6,8 C 1,9 km/h (1 Bft)
08.11.2012 17:30 6,2 C 55 % 0,0 l/m 1,9 km/h (1 Bft) O-NO 67 -2,2 C 6,7 C 0,0 km/h (0 Bft)
08.11.2012 17:35 6,2 C 56 % 0,0 l/m 2,1 km/h (1 Bft) NO 45 -1,9 C 6,6 C 2,3 km/h (1 Bft)
08.11.2012 17:40 6,0 C 55 % 0,0 l/m 1,9 km/h (1 Bft) O 90 -2,3 C 6,5 C 6,8 km/h (2 Bft)
08.11.2012 17:45 6,2 C 53 % 0,0 l/m 2,7 km/h (1 Bft) O 90 -2,7 C 6,6 C 2,3 km/h (1 Bft)
08.11.2012 17:50 6,3 C 53 % 0,0 l/m 3,2 km/h (1 Bft) O-SO 112 -2,6 C 6,6 C 1,9 km/h (1 Bft)
08.11.2012 17:55 6,4 C 52 % 0,0 l/m 2,9 km/h (1 Bft) NO 45 -2,7 C 6,6 C 9,3 km/h (2 Bft)
08.11.2012 18:00 6,5 C 52 % 0,0 l/m 3,4 km/h (1 Bft) O 90 -2,6 C 6,7 C 5,5 km/h (1 Bft)
08.11.2012 18:05 6,7 C 51 % 0,0 l/m 3,5 km/h (1 Bft) NO 45 -2,7 C 6,8 C 3,1 km/h (1 Bft)
08.11.2012 18:10 6,4 C 53 % 0,0 l/m 4,0 km/h (1 Bft) S-SO 157 -2,5 C 6,7 C 6,1 km/h (2 Bft)
08.11.2012 18:15 6,5 C 53 % 0,0 l/m 4,5 km/h (1 Bft) O-SO 112 -2,4 C 6,7 C 6,6 km/h (2 Bft)
08.11.2012 18:20 6,3 C 53 % 0,0 l/m 5,3 km/h (1 Bft) O 90 -2,6 C 6,3 C 6,4 km/h (2 Bft)
08.11.2012 18:25 6,1 C 54 % 0,0 l/m 5,3 km/h (1 Bft) O-NO 67 -2,5 C 6,3 C 2,9 km/h (1 Bft)
08.11.2012 18:30 6,1 C 53 % 0,0 l/m 4,2 km/h (1 Bft) O 90 -2,7 C 6,5 C 6,9 km/h (2 Bft)
08.11.2012 18:35 6,2 C 53 % 0,0 l/m 3,9 km/h (1 Bft) SO 135 -2,7 C 6,7 C 5,3 km/h (1 Bft)
08.11.2012 18:40 6,1 C 53 % 0,0 l/m 3,2 km/h (1 Bft) O-SO 112 -2,7 C 6,8 C 2,9 km/h (1 Bft)
08.11.2012 18:45 6,2 C 54 % 0,0 l/m 2,4 km/h (1 Bft) O 90 -2,4 C 6,7 C 2,1 km/h (1 Bft)
08.11.2012 18:50 6,3 C 53 % 0,0 l/m 2,4 km/h (1 Bft) O-SO 112 -2,6 C 6,7 C 2,9 km/h (1 Bft)
08.11.2012 18:55 6,4 C 53 % 0,0 l/m 2,4 km/h (1 Bft) SO 135 -2,5 C 6,8 C 2,7 km/h (1 Bft)
08.11.2012 19:00 6,3 C 53 % 0,0 l/m 2,9 km/h (1 Bft) O-SO 112 -2,6 C 7,0 C 6,4 km/h (2 Bft)
08.11.2012 19:05 6,4 C 53 % 0,0 l/m 3,1 km/h (1 Bft) O-SO 112 -2,5 C 6,9 C 0,0 km/h (0 Bft)
08.11.2012 19:10 6,0 C 55 % 0,0 l/m 2,6 km/h (1 Bft) N-NW 337 -2,3 C 6,7 C 5,0 km/h (1 Bft)
08.11.2012 19:15 5,9 C 56 % 0,0 l/m 2,9 km/h (1 Bft) O-SO 112 -2,2 C 6,7 C 4,3 km/h (1 Bft)
08.11.2012 19:20 5,8 C 57 % 0,0 l/m 4,2 km/h (1 Bft) O-SO 112 -2,0 C 6,3 C 6,1 km/h (2 Bft)
08.11.2012 19:25 5,7 C 57 % 0,0 l/m 4,0 km/h (1 Bft) O-SO 112 -2,1 C 6,4 C 8,0 km/h (2 Bft)
08.11.2012 19:30 5,6 C 57 % 0,0 l/m 3,2 km/h (1 Bft) S-SO 157 -2,2 C 6,7 C 2,7 km/h (1 Bft)
08.11.2012 19:35 5,7 C 57 % 0,0 l/m 2,7 km/h (1 Bft) O-NO 67 -2,1 C 6,7 C 5,3 km/h (1 Bft)
08.11.2012 19:40 6,0 C 56 % 0,0 l/m 2,4 km/h (1 Bft) N-NO 22 -2,1 C 6,6 C 2,9 km/h (1 Bft)
08.11.2012 19:45 6,0 C 55 % 0,0 l/m 2,3 km/h (1 Bft) O-SO 112 -2,3 C 6,6 C 4,2 km/h (1 Bft)
08.11.2012 19:50 6,1 C 55 % 0,0 l/m 1,3 km/h (1 Bft) NO 45 -2,2 C 6,5 C 0,0 km/h (0 Bft)
08.11.2012 19:55 6,0 C 55 % 0,0 l/m 1,1 km/h (1 Bft) N-NO 22 -2,3 C 6,3 C 0,0 km/h (0 Bft)
08.11.2012 20:00 6,1 C 54 % 0,0 l/m 0,6 km/h (0 Bft) N-NO 22 -2,5 C 6,2 C 3,4 km/h (1 Bft)
08.11.2012 20:05 6,1 C 53 % 0,0 l/m 1,0 km/h (0 Bft) N-NW 337 -2,7 C 6,0 C 4,3 km/h (1 Bft)
08.11.2012 20:10 5,7 C 56 % 0,0 l/m 1,8 km/h (1 Bft) NO 45 -2,4 C 6,0 C 2,4 km/h (1 Bft)
08.11.2012 20:15 5,8 C 56 % 0,0 l/m 1,6 km/h (1 Bft) NO 45 -2,3 C 5,9 C 2,1 km/h (1 Bft)
08.11.2012 20:20 5,6 C 57 % 0,0 l/m 1,0 km/h (0 Bft) N-NO 22 -2,2 C 5,7 C 4,2 km/h (1 Bft)
08.11.2012 20:25 5,2 C 58 % 0,0 l/m 1,3 km/h (1 Bft) NO 45 -2,4 C 5,6 C 0,0 km/h (0 Bft)
08.11.2012 20:30 5,0 C 60 % 0,0 l/m 1,4 km/h (1 Bft) N-NO 22 -2,1 C 5,3 C 0,0 km/h (0 Bft)
08.11.2012 20:35 4,7 C 61 % 0,0 l/m 0,8 km/h (0 Bft) N-NO 22 -2,2 C 5,1 C 0,0 km/h (0 Bft)
08.11.2012 20:40 4,0 C 65 % 0,0 l/m 0,3 km/h (0 Bft) N-NO 22 -2,0 C 4,5 C 3,2 km/h (1 Bft)
08.11.2012 20:45 4,2 C 66 % 0,0 l/m 0,8 km/h (0 Bft) N-NO 22 -1,6 C 4,2 C 1,9 km/h (1 Bft)
08.11.2012 20:50 4,6 C 66 % 0,0 l/m 0,8 km/h (0 Bft) N-NO 22 -1,2 C 4,1 C 0,0 km/h (0 Bft)
08.11.2012 20:55 4,2 C 66 % 0,0 l/m 0,3 km/h (0 Bft) S-SO 157 -1,6 C 4,2 C 1,9 km/h (1 Bft)
08.11.2012 21:00 3,5 C 68 % 0,0 l/m 0,2 km/h (0 Bft) S-SW 202 -1,8 C 3,7 C 0,0 km/h (0 Bft)
08.11.2012 21:05 3,6 C 69 % 0,0 l/m 0,2 km/h (0 Bft) NO 45 -1,5 C 3,5 C 0,0 km/h (0 Bft)
08.11.2012 21:10 4,1 C 69 % 0,0 l/m 0,5 km/h (0 Bft) NO 45 -1,1 C 3,6 C 3,4 km/h (1 Bft)
08.11.2012 21:15 3,9 C 70 % 0,0 l/m 0,5 km/h (0 Bft) N-NO 22 -1,1 C 3,7 C 0,0 km/h (0 Bft)
08.11.2012 21:20 3,7 C 71 % 0,0 l/m 0,3 km/h (0 Bft) SO 135 -1,1 C 3,6 C 0,0 km/h (0 Bft)
08.11.2012 21:25 2,9 C 73 % 0,0 l/m 0,0 km/h (0 Bft) O-SO 112 -1,5 C 3,4 C 0,0 km/h (0 Bft)
08.11.2012 21:30 3,1 C 73 % 0,0 l/m 0,0 km/h (0 Bft) N 360 -1,3 C 2,9 C 0,0 km/h (0 Bft)
08.11.2012 21:35 3,5 C 74 % 0,0 l/m 0,0 km/h (0 Bft) N-NO 22 -0,7 C 2,8 C 0,0 km/h (0 Bft)
08.11.2012 21:40 3,7 C 73 % 0,0 l/m 0,2 km/h (0 Bft) NO 45 -0,7 C 3,0 C 0,0 km/h (0 Bft)
08.11.2012 21:45 3,5 C 73 % 0,0 l/m 0,5 km/h (0 Bft) N-NO 22 -0,9 C 3,1 C 0,0 km/h (0 Bft)
08.11.2012 21:50 3,7 C 72 % 0,0 l/m 0,3 km/h (0 Bft) NO 45 -0,9 C 3,2 C 0,0 km/h (0 Bft)
08.11.2012 21:55 3,3 C 72 % 0,0 l/m 0,6 km/h (0 Bft) N 360 -1,3 C 3,0 C 0,0 km/h (0 Bft)
08.11.2012 22:00 3,1 C 72 % 0,0 l/m 1,1 km/h (1 Bft) NO 45 -1,4 C 2,7 C 0,0 km/h (0 Bft)
08.11.2012 22:05 2,5 C 74 % 0,0 l/m 0,8 km/h (0 Bft) N-NO 22 -1,7 C 2,3 C 0,0 km/h (0 Bft)
08.11.2012 22:10 2,4 C 76 % 0,0 l/m 0,5 km/h (0 Bft) NO 45 -1,4 C 1,8 C 2,3 km/h (1 Bft)
08.11.2012 22:15 2,3 C 76 % 0,0 l/m 0,6 km/h (0 Bft) N 360 -1,5 C 1,6 C 3,1 km/h (1 Bft)
08.11.2012 22:20 2,2 C 77 % 0,0 l/m 0,6 km/h (0 Bft) N-NW 337 -1,4 C 1,6 C 1,6 km/h (1 Bft)
08.11.2012 22:25 1,9 C 77 % 0,0 l/m 0,3 km/h (0 Bft) N-NW 337 -1,7 C 1,5 C 0,0 km/h (0 Bft)
08.11.2012 22:30 2,3 C 78 % 0,0 l/m 1,0 km/h (0 Bft) N 360 -1,1 C 1,5 C 3,9 km/h (1 Bft)
08.11.2012 22:35 2,4 C 78 % 0,0 l/m 1,3 km/h (1 Bft) N-NO 22 -1,0 C 1,6 C 3,1 km/h (1 Bft)
08.11.2012 22:40 2,7 C 77 % 0,0 l/m 2,1 km/h (1 Bft) N 360 -0,9 C 2,0 C 3,9 km/h (1 Bft)
08.11.2012 22:45 2,5 C 77 % 0,0 l/m 2,1 km/h (1 Bft) S-SW 202 -1,1 C 2,1 C 0,0 km/h (0 Bft)
08.11.2012 22:50 2,7 C 78 % 0,0 l/m 1,1 km/h (1 Bft) N-NO 22 -0,7 C 2,1 C 2,9 km/h (1 Bft)
08.11.2012 22:55 2,8 C 77 % 0,0 l/m 0,6 km/h (0 Bft) N-NO 22 -0,8 C 2,1 C 0,0 km/h (0 Bft)
08.11.2012 23:00 2,3 C 76 % 0,0 l/m 0,3 km/h (0 Bft) W-SW 247 -1,5 C 2,0 C 0,0 km/h (0 Bft)
08.11.2012 23:05 1,8 C 77 % 0,0 l/m 0,0 km/h (0 Bft) W 270 -1,8 C 1,6 C 0,0 km/h (0 Bft)
08.11.2012 23:10 1,4 C 78 % 0,0 l/m 0,0 km/h (0 Bft) N-NW 337 -2,0 C 1,1 C 0,0 km/h (0 Bft)
08.11.2012 23:15 1,6 C 79 % 0,0 l/m 0,5 km/h (0 Bft) N 360 -1,6 C 1,0 C 1,6 km/h (1 Bft)
08.11.2012 23:20 1,9 C 80 % 0,0 l/m 1,3 km/h (1 Bft) O-NO 67 -1,2 C 1,1 C 0,0 km/h (0 Bft)
08.11.2012 23:25 1,8 C 79 % 0,0 l/m 1,0 km/h (0 Bft) SO 135 -1,4 C 1,1 C 0,0 km/h (0 Bft)
08.11.2012 23:30 1,8 C 79 % 0,0 l/m 0,0 km/h (0 Bft) SO 135 -1,4 C 1,2 C 0,0 km/h (0 Bft)
08.11.2012 23:35 1,8 C 79 % 0,0 l/m 0,3 km/h (0 Bft) O 90 -1,4 C 1,3 C 0,0 km/h (0 Bft)
08.11.2012 23:40 1,7 C 80 % 0,0 l/m 0,3 km/h (0 Bft) N 360 -1,4 C 1,3 C 1,6 km/h (1 Bft)
08.11.2012 23:45 1,8 C 81 % 0,0 l/m 0,0 km/h (0 Bft) S-SO 157 -1,1 C 1,3 C 0,0 km/h (0 Bft)
08.11.2012 23:50 1,6 C 81 % 0,0 l/m 0,0 km/h (0 Bft) O-NO 67 -1,3 C 1,2 C 0,0 km/h (0 Bft)
08.11.2012 23:55 2,5 C 82 % 0,0 l/m 0,2 km/h (0 Bft) NO 45 -0,3 C 1,3 C 3,2 km/h (1 Bft)
_ Min-Zeit 06:45 18:05 - 23:50 - - 06:45 06:50 23:50
Minimum _ -3,0 C 51 % - 0,0 km/h (0 Bft) - - -4,0 C -3,6 C 0,0 km/h (0 Bft)
_ Max-Zeit 14:20 09:55 23:55 15:40 - - 12:20 12:20 15:40
Maximum _ 9,9 C 95 % 0,0 l/m 7,7 km/h
O-NO (2 Bft)
- - 6,7 C 14,8 C 17,2 km/h
O-NO (3 Bft)
Durchschnitt _ 3,0 C 81 % #0,0 l/m 1,0 km/h (0 Bft) O-SO - -0,2 C 3,7 C 1,5 km/h (1 Bft)